createdAt,value
2024-02-26T00:00:47.969Z,8.90
2024-02-26T00:03:17.980Z,8.90
2024-02-26T00:05:48.361Z,8.90
2024-02-26T00:08:21.018Z,8.80
2024-02-26T00:10:50.843Z,8.70
2024-02-26T00:13:21.490Z,8.60
2024-02-26T00:15:51.080Z,8.70
2024-02-26T00:18:28.265Z,8.70
2024-02-26T00:20:58.745Z,8.80
2024-02-26T00:23:31.943Z,8.80
2024-02-26T00:26:02.095Z,8.70
2024-02-26T00:28:35.034Z,8.60
2024-02-26T00:31:04.966Z,8.70
2024-02-26T00:33:31.951Z,8.70
2024-02-26T00:36:02.554Z,8.70
2024-02-26T00:38:29.425Z,8.70
2024-02-26T00:40:59.351Z,8.70
2024-02-26T00:43:36.054Z,8.70
2024-02-26T00:46:12.240Z,8.90
2024-02-26T00:48:39.367Z,8.80
2024-02-26T00:51:10.327Z,8.60
2024-02-26T00:53:40.200Z,8.50
2024-02-26T00:56:18.911Z,8.60
2024-02-26T00:58:48.754Z,8.60
2024-02-26T01:01:45.140Z,8.70
2024-02-26T01:04:24.329Z,8.80
2024-02-26T01:06:54.369Z,8.70
2024-02-26T01:09:24.108Z,8.50
2024-02-26T01:11:54.197Z,8.60
2024-02-26T01:14:21.220Z,8.70
2024-02-26T01:16:48.086Z,8.70
2024-02-26T01:19:15.161Z,8.60
2024-02-26T01:21:42.322Z,8.60
2024-02-26T01:24:09.373Z,8.50
2024-02-26T01:26:36.240Z,8.50
2024-02-26T01:29:03.128Z,8.40
2024-02-26T01:31:30.026Z,8.40
2024-02-26T01:33:57.225Z,8.50
2024-02-26T01:36:24.444Z,8.60
2024-02-26T01:38:51.375Z,8.50
2024-02-26T01:41:18.291Z,8.40
2024-02-26T01:43:45.099Z,8.30
2024-02-26T01:46:21.816Z,8.40
2024-02-26T01:48:51.310Z,8.50
2024-02-26T01:51:19.222Z,8.60
2024-02-26T01:53:46.194Z,8.40
2024-02-26T01:56:14.643Z,8.40
2024-02-26T01:58:42.498Z,8.40
2024-02-26T02:01:09.409Z,8.30
2024-02-26T02:03:37.311Z,8.30
2024-02-26T02:06:05.502Z,8.50
2024-02-26T02:08:33.418Z,8.40
2024-02-26T02:11:00.793Z,8.50
2024-02-26T02:13:27.826Z,8.40
2024-02-26T02:15:54.905Z,8.50
2024-02-26T02:18:22.168Z,8.50
2024-02-26T02:20:49.325Z,8.50
2024-02-26T02:23:16.305Z,8.50
2024-02-26T02:25:43.248Z,8.40
2024-02-26T02:28:10.853Z,8.50
2024-02-26T02:30:39.189Z,8.50
2024-02-26T02:33:06.625Z,8.40
2024-02-26T02:35:33.738Z,8.30
2024-02-26T02:38:00.750Z,8.30
2024-02-26T02:40:27.755Z,8.30
2024-02-26T02:42:54.775Z,8.40
2024-02-26T02:45:21.949Z,8.20
2024-02-26T02:47:49.136Z,8.20
2024-02-26T02:50:16.286Z,8.20
2024-02-26T02:52:43.459Z,8.20
2024-02-26T02:55:10.460Z,8.30
2024-02-26T02:57:42.256Z,8.20
2024-02-26T03:00:10.733Z,8.30
2024-02-26T03:02:38.135Z,8.30
2024-02-26T03:05:05.835Z,8.10
2024-02-26T03:07:32.971Z,8.20
2024-02-26T03:10:00.048Z,8.30
2024-02-26T03:12:29.082Z,8.20
2024-02-26T03:14:56.190Z,8.20
2024-02-26T03:17:25.578Z,8.10
2024-02-26T03:19:55.007Z,8.10
2024-02-26T03:22:22.473Z,8.10
2024-02-26T03:24:50.023Z,8.10
2024-02-26T03:27:17.438Z,8.20
2024-02-26T03:29:44.467Z,8.20
2024-02-26T03:32:11.401Z,8.20
2024-02-26T03:34:40.510Z,8.40
2024-02-26T03:37:08.729Z,8.40
2024-02-26T03:39:35.721Z,8.40
2024-02-26T03:42:03.380Z,8.30
2024-02-26T03:44:30.520Z,8.30
2024-02-26T03:46:57.669Z,8.30
2024-02-26T03:49:24.790Z,8.30
2024-02-26T03:51:51.881Z,8.10
2024-02-26T03:54:19.018Z,8.20
2024-02-26T03:56:46.164Z,8.20
2024-02-26T03:59:13.284Z,8.30
2024-02-26T04:01:40.135Z,8.10
2024-02-26T04:04:07.734Z,8.10
2024-02-26T04:06:34.935Z,8.20
2024-02-26T04:09:05.050Z,8.30
2024-02-26T04:11:32.194Z,8.30
2024-02-26T04:13:59.262Z,8.20
2024-02-26T04:16:26.641Z,8.40
2024-02-26T04:18:54.827Z,8.30
2024-02-26T04:21:24.848Z,8.30
2024-02-26T04:23:51.880Z,8.30
2024-02-26T04:26:18.925Z,8.20
2024-02-26T04:28:45.888Z,8.40
2024-02-26T04:31:12.767Z,8.30
2024-02-26T04:33:39.862Z,8.20
2024-02-26T04:36:08.079Z,8.10
2024-02-26T04:38:35.104Z,8.00
2024-02-26T04:41:01.993Z,8.20
2024-02-26T04:43:28.839Z,8.20
2024-02-26T04:45:58.246Z,8.20
2024-02-26T04:48:25.562Z,8.30
2024-02-26T04:50:52.666Z,8.20
2024-02-26T04:53:19.726Z,8.10
2024-02-26T04:55:46.552Z,8.10
2024-02-26T04:58:13.448Z,8.20
2024-02-26T05:00:40.314Z,8.10
2024-02-26T05:03:07.268Z,8.00
2024-02-26T05:05:34.064Z,8.10
2024-02-26T05:08:00.899Z,8.00
2024-02-26T05:10:27.746Z,8.00
2024-02-26T05:12:54.705Z,8.10
2024-02-26T05:15:21.628Z,8.00
2024-02-26T05:17:48.617Z,8.00
2024-02-26T05:20:15.680Z,7.90
2024-02-26T05:22:43.433Z,7.90
2024-02-26T05:25:10.767Z,8.00
2024-02-26T05:27:37.607Z,8.00
2024-02-26T05:30:05.110Z,7.90
2024-02-26T05:32:32.220Z,8.10
2024-02-26T05:34:59.101Z,8.10
2024-02-26T05:37:28.950Z,8.30
2024-02-26T05:39:57.745Z,8.30
2024-02-26T05:42:24.976Z,8.10
2024-02-26T05:44:52.227Z,8.10
2024-02-26T05:47:19.355Z,8.00
2024-02-26T05:49:46.521Z,8.00
2024-02-26T05:52:13.387Z,8.00
2024-02-26T05:54:40.453Z,8.10
2024-02-26T05:57:07.465Z,8.10
2024-02-26T05:59:34.549Z,8.20
2024-02-26T06:02:01.357Z,8.10
2024-02-26T06:04:28.493Z,8.20
2024-02-26T06:06:55.683Z,8.10
2024-02-26T06:09:25.537Z,8.30
2024-02-26T06:11:52.643Z,8.20
2024-02-26T06:14:20.659Z,8.10
2024-02-26T06:16:47.926Z,8.10
2024-02-26T06:19:14.958Z,8.10
2024-02-26T06:21:42.021Z,8.00
2024-02-26T06:24:09.251Z,8.20
2024-02-26T06:26:36.238Z,8.30
2024-02-26T06:29:03.159Z,8.30
2024-02-26T06:31:30.400Z,8.30
2024-02-26T06:33:57.529Z,8.30
2024-02-26T06:36:24.872Z,8.20
2024-02-26T06:38:52.667Z,8.30
2024-02-26T06:41:19.763Z,8.40
2024-02-26T06:43:46.881Z,8.40
2024-02-26T06:46:13.743Z,8.50
2024-02-26T06:48:40.758Z,8.40
2024-02-26T06:51:07.732Z,8.20
2024-02-26T06:53:34.716Z,8.10
2024-02-26T06:56:01.548Z,8.20
2024-02-26T06:58:28.365Z,8.20
2024-02-26T07:00:59.004Z,8.20
2024-02-26T07:03:26.983Z,8.30
2024-02-26T07:05:56.288Z,8.30
2024-02-26T07:08:23.165Z,8.20
2024-02-26T07:10:50.141Z,8.30
2024-02-26T07:13:17.020Z,8.10
2024-02-26T07:15:44.195Z,8.30
2024-02-26T07:18:11.834Z,8.40
2024-02-26T07:20:38.997Z,8.40
2024-02-26T07:23:05.825Z,8.50
2024-02-26T07:25:32.701Z,8.50
2024-02-26T07:27:59.565Z,8.40
2024-02-26T07:30:26.634Z,8.50
2024-02-26T07:32:53.639Z,8.30
2024-02-26T07:35:20.861Z,8.40
2024-02-26T07:37:51.061Z,8.40
2024-02-26T07:40:18.227Z,8.40
2024-02-26T07:42:45.134Z,8.30
2024-02-26T07:45:12.482Z,8.30
2024-02-26T07:47:42.328Z,8.50
2024-02-26T07:50:10.327Z,8.40
2024-02-26T07:52:37.346Z,8.40
2024-02-26T07:55:07.609Z,8.40
2024-02-26T07:57:35.120Z,8.30
2024-02-26T08:00:08.595Z,8.30
2024-02-26T08:02:35.575Z,8.40
2024-02-26T08:05:02.955Z,8.20
2024-02-26T08:07:30.302Z,8.30
2024-02-26T08:09:57.288Z,8.40
2024-02-26T08:12:24.380Z,8.40
2024-02-26T08:14:51.483Z,8.40
2024-02-26T08:17:18.392Z,8.40
2024-02-26T08:19:45.548Z,8.40
2024-02-26T08:22:17.132Z,8.30
2024-02-26T08:24:44.290Z,8.30
2024-02-26T08:27:11.314Z,8.20
2024-02-26T08:29:38.211Z,8.30
2024-02-26T08:32:05.499Z,8.20
2024-02-26T08:34:32.613Z,8.20
2024-02-26T08:36:59.560Z,8.30
2024-02-26T08:39:27.061Z,8.30
2024-02-26T08:41:54.053Z,8.40
2024-02-26T08:44:21.443Z,8.40
2024-02-26T08:46:48.264Z,8.40
2024-02-26T08:49:15.313Z,8.30
2024-02-26T08:51:45.382Z,8.10
2024-02-26T08:54:12.667Z,8.30
2024-02-26T08:56:39.703Z,8.40
2024-02-26T08:59:06.510Z,8.30
2024-02-26T09:01:34.116Z,8.50
2024-02-26T09:04:01.053Z,8.40
2024-02-26T09:06:28.182Z,8.30
2024-02-26T09:08:56.171Z,8.40
2024-02-26T09:11:23.861Z,8.30
2024-02-26T09:13:50.857Z,8.20
2024-02-26T09:16:17.702Z,8.20
2024-02-26T09:18:44.752Z,8.20
2024-02-26T09:21:11.760Z,8.30
2024-02-26T09:23:38.662Z,8.10
2024-02-26T09:26:07.692Z,8.00
2024-02-26T09:28:38.525Z,8.10
2024-02-26T09:31:07.510Z,8.20
2024-02-26T09:33:35.028Z,8.20
2024-02-26T09:36:02.363Z,8.30
2024-02-26T09:38:33.219Z,8.40
2024-02-26T09:41:03.914Z,8.30
2024-02-26T09:43:36.528Z,8.40
2024-02-26T09:46:05.706Z,8.40
2024-02-26T09:48:35.478Z,8.30
2024-02-26T09:51:04.062Z,8.20
2024-02-26T09:53:34.362Z,8.10
2024-02-26T09:56:01.237Z,8.10
2024-02-26T09:58:30.370Z,8.30
2024-02-26T10:01:03.945Z,8.30
2024-02-26T10:03:38.504Z,8.00
2024-02-26T10:06:06.972Z,8.30
2024-02-26T10:08:34.452Z,8.40
2024-02-26T10:11:06.181Z,8.30
2024-02-26T10:13:33.195Z,8.20
2024-02-26T10:16:00.267Z,8.40
2024-02-26T10:18:29.100Z,8.40
2024-02-26T10:21:02.974Z,8.60
2024-02-26T10:23:29.984Z,8.60
2024-02-26T10:25:57.201Z,8.50
2024-02-26T10:28:24.343Z,8.50
2024-02-26T10:30:53.761Z,8.40
2024-02-26T10:33:21.028Z,8.40
2024-02-26T10:35:48.682Z,8.40
2024-02-26T10:38:18.537Z,8.50
2024-02-26T10:40:45.485Z,8.40
2024-02-26T10:43:12.419Z,8.50
2024-02-26T10:45:43.110Z,8.40
2024-02-26T10:48:15.729Z,8.40
2024-02-26T10:50:43.087Z,8.10
2024-02-26T10:53:18.806Z,8.10
2024-02-26T10:56:08.841Z,8.30
2024-02-26T10:58:37.129Z,8.30
2024-02-26T11:01:05.875Z,8.20
2024-02-26T11:03:36.242Z,8.30
2024-02-26T11:06:04.742Z,8.20
2024-02-26T11:08:33.612Z,8.20
2024-02-26T11:11:01.587Z,8.20
2024-02-26T11:13:34.094Z,8.20
2024-02-26T11:16:03.398Z,8.10
2024-02-26T11:18:32.401Z,8.20
2024-02-26T11:21:01.393Z,8.30
2024-02-26T11:23:28.487Z,8.30
2024-02-26T11:25:59.026Z,8.30
2024-02-26T11:28:28.440Z,8.30
2024-02-26T11:30:56.101Z,8.30
2024-02-26T11:33:23.552Z,8.30
2024-02-26T11:35:50.774Z,8.20
2024-02-26T11:38:28.204Z,8.00
2024-02-26T11:40:55.280Z,8.00
2024-02-26T11:43:54.643Z,8.00
2024-02-26T11:46:33.193Z,8.20
2024-02-26T11:49:24.604Z,8.20
2024-02-26T11:52:01.753Z,8.30
2024-02-26T11:54:43.605Z,8.30
2024-02-26T11:57:26.007Z,8.40
2024-02-26T11:59:53.674Z,8.20
2024-02-26T12:02:39.015Z,8.30
2024-02-26T12:05:19.198Z,8.10
2024-02-26T12:07:57.623Z,8.10
2024-02-26T12:10:37.072Z,8.30
2024-02-26T12:13:18.957Z,8.20
2024-02-26T12:16:07.378Z,8.20
2024-02-26T12:18:36.396Z,8.30
2024-02-26T12:21:05.325Z,8.20
2024-02-26T12:23:32.636Z,8.30
2024-02-26T12:26:05.846Z,8.40
2024-02-26T12:28:34.934Z,8.30
2024-02-26T12:31:02.363Z,8.20
2024-02-26T12:33:30.510Z,8.20
2024-02-26T12:35:59.618Z,8.30
2024-02-26T12:38:28.541Z,8.30
2024-02-26T12:40:55.641Z,8.30
2024-02-26T12:43:22.679Z,8.30
2024-02-26T12:45:50.192Z,8.40
2024-02-26T12:48:17.306Z,8.40
2024-02-26T12:50:50.596Z,8.20
2024-02-26T12:53:17.789Z,8.20
2024-02-26T12:55:45.242Z,8.20
2024-02-26T12:58:13.272Z,8.20
2024-02-26T13:00:42.005Z,8.30
2024-02-26T13:03:09.342Z,8.40
2024-02-26T13:05:36.801Z,8.40
2024-02-26T13:08:06.890Z,8.60
2024-02-26T13:10:36.228Z,8.70
2024-02-26T13:13:04.206Z,8.50
2024-02-26T13:15:31.359Z,8.30
2024-02-26T13:17:59.439Z,8.50
2024-02-26T13:20:31.566Z,8.60
2024-02-26T13:23:07.910Z,8.40
2024-02-26T13:25:36.897Z,8.40
2024-02-26T13:28:19.222Z,8.40
2024-02-26T13:30:54.173Z,8.50
2024-02-26T13:33:22.081Z,8.40
2024-02-26T13:35:49.511Z,8.40
2024-02-26T13:38:16.595Z,8.60
2024-02-26T13:40:43.528Z,8.50
2024-02-26T13:43:10.368Z,8.60
2024-02-26T13:45:40.090Z,8.70
2024-02-26T13:48:11.383Z,8.40
2024-02-26T13:50:39.859Z,8.40
2024-02-26T13:53:07.188Z,8.50
2024-02-26T13:55:34.388Z,8.30
2024-02-26T13:58:04.569Z,8.40
2024-02-26T14:00:36.094Z,8.40
2024-02-26T14:03:04.403Z,8.50
2024-02-26T14:05:31.519Z,8.60
2024-02-26T14:07:58.792Z,8.70
2024-02-26T14:10:25.990Z,8.60
2024-02-26T14:12:53.004Z,8.40
2024-02-26T14:15:19.919Z,8.20
2024-02-26T14:17:47.302Z,8.20
2024-02-26T14:20:14.560Z,8.40
2024-02-26T14:22:41.553Z,8.20
2024-02-26T14:25:10.543Z,8.30
2024-02-26T14:27:37.732Z,8.30
2024-02-26T14:30:05.709Z,8.20
2024-02-26T14:32:36.717Z,8.40
2024-02-26T14:35:07.717Z,8.40
2024-02-26T14:37:35.104Z,8.40
2024-02-26T14:40:03.687Z,8.40
2024-02-26T14:42:31.074Z,8.60
2024-02-26T14:44:58.351Z,8.50
2024-02-26T14:47:25.250Z,8.50
2024-02-26T14:49:53.037Z,8.20
2024-02-26T14:52:20.145Z,8.30
2024-02-26T14:54:47.140Z,8.20
2024-02-26T14:57:14.655Z,8.30
2024-02-26T14:59:41.802Z,8.10
2024-02-26T15:02:10.896Z,8.30
2024-02-26T15:04:38.464Z,8.20
2024-02-26T15:07:05.907Z,8.30
2024-02-26T15:09:32.991Z,8.30
2024-02-26T15:12:04.489Z,8.30
2024-02-26T15:14:31.672Z,8.50
2024-02-26T15:16:58.752Z,8.40
2024-02-26T15:19:25.759Z,8.60
2024-02-26T15:21:52.685Z,8.50
2024-02-26T15:24:19.839Z,8.40
2024-02-26T15:26:47.526Z,8.40
2024-02-26T15:29:14.918Z,8.60
2024-02-26T15:31:41.761Z,8.50
2024-02-26T15:34:09.036Z,8.50
2024-02-26T15:36:36.872Z,8.70
2024-02-26T15:39:04.823Z,8.70
2024-02-26T15:41:32.174Z,8.60
2024-02-26T15:44:01.434Z,8.60
2024-02-26T15:46:31.596Z,8.60
2024-02-26T15:48:58.640Z,8.40
2024-02-26T15:51:26.063Z,8.60
2024-02-26T15:53:54.560Z,8.70
2024-02-26T15:56:25.601Z,8.60
2024-02-26T15:58:53.806Z,8.80
2024-02-26T16:01:24.698Z,8.80
2024-02-26T16:03:55.033Z,8.70
2024-02-26T16:06:37.560Z,8.80
2024-02-26T16:09:04.830Z,8.60
2024-02-26T16:11:31.938Z,8.90
2024-02-26T16:14:21.718Z,8.60
2024-02-26T16:17:01.703Z,8.60
2024-02-26T16:19:29.081Z,8.50
2024-02-26T16:21:56.317Z,8.60
2024-02-26T16:24:23.483Z,8.60
2024-02-26T16:26:50.631Z,8.70
2024-02-26T16:29:17.783Z,8.70
2024-02-26T16:31:44.703Z,8.60
2024-02-26T16:34:11.830Z,8.60
2024-02-26T16:36:38.962Z,8.70
2024-02-26T16:39:06.052Z,8.50
2024-02-26T16:41:36.090Z,8.60
2024-02-26T16:44:04.686Z,8.60
2024-02-26T16:46:32.776Z,8.50
2024-02-26T16:49:01.602Z,8.50
2024-02-26T16:51:29.800Z,8.60
2024-02-26T16:53:57.107Z,8.60
2024-02-26T16:56:24.144Z,8.60
2024-02-26T16:58:50.969Z,8.70
2024-02-26T17:01:17.897Z,8.60
2024-02-26T17:03:44.879Z,8.60
2024-02-26T17:06:12.015Z,8.60
2024-02-26T17:08:39.568Z,8.50
2024-02-26T17:11:06.406Z,8.50
2024-02-26T17:13:33.611Z,8.60
2024-02-26T17:16:00.696Z,8.60
2024-02-26T17:18:27.642Z,8.30
2024-02-26T17:20:56.668Z,8.40
2024-02-26T17:23:23.736Z,8.30
2024-02-26T17:25:50.603Z,8.40
2024-02-26T17:28:19.296Z,8.60
2024-02-26T17:30:46.750Z,8.70
2024-02-26T17:33:13.797Z,8.50
2024-02-26T17:35:41.065Z,8.60
2024-02-26T17:38:08.058Z,8.60
2024-02-26T17:40:34.927Z,8.80
2024-02-26T17:43:01.873Z,8.60
2024-02-26T17:45:30.273Z,8.50
2024-02-26T17:47:57.629Z,8.40
2024-02-26T17:50:25.087Z,8.40
2024-02-26T17:52:54.348Z,8.30
2024-02-26T17:55:21.637Z,8.50
2024-02-26T17:57:49.036Z,8.50
2024-02-26T18:00:16.412Z,8.40
2024-02-26T18:02:43.845Z,8.50
2024-02-26T18:05:12.340Z,8.40
2024-02-26T18:07:39.477Z,8.50
2024-02-26T18:10:10.086Z,8.60
2024-02-26T18:12:37.352Z,8.50
2024-02-26T18:15:05.969Z,8.30
2024-02-26T18:17:33.394Z,8.40
2024-02-26T18:20:01.341Z,8.50
2024-02-26T18:22:28.229Z,8.70
2024-02-26T18:24:55.752Z,8.70
2024-02-26T18:27:22.916Z,8.80
2024-02-26T18:29:50.006Z,8.60
2024-02-26T18:32:19.739Z,8.60
2024-02-26T18:34:47.077Z,8.70
2024-02-26T18:37:14.076Z,8.80
2024-02-26T18:39:44.336Z,8.90
2024-02-26T18:42:13.315Z,8.90
2024-02-26T18:44:41.667Z,8.70
2024-02-26T18:47:09.073Z,8.80
2024-02-26T18:49:38.684Z,8.90
2024-02-26T18:52:06.137Z,8.90
2024-02-26T18:54:37.170Z,9.00
2024-02-26T18:57:05.336Z,8.90
2024-02-26T18:59:32.289Z,8.80
2024-02-26T19:01:59.222Z,8.80
2024-02-26T19:04:26.368Z,8.70
2024-02-26T19:06:54.045Z,8.60
2024-02-26T19:09:21.234Z,8.60
2024-02-26T19:11:49.611Z,8.70
2024-02-26T19:14:16.728Z,8.60
2024-02-26T19:16:44.369Z,8.70
2024-02-26T19:19:11.558Z,8.80
2024-02-26T19:21:38.808Z,8.80
2024-02-26T19:24:07.793Z,8.90
2024-02-26T19:26:36.066Z,8.90
2024-02-26T19:29:06.003Z,8.80
2024-02-26T19:31:35.387Z,8.90
2024-02-26T19:34:03.044Z,8.90
2024-02-26T19:36:30.147Z,8.90
2024-02-26T19:38:57.588Z,8.60
2024-02-26T19:41:24.684Z,8.80
2024-02-26T19:43:51.809Z,9.00
2024-02-26T19:46:19.370Z,8.90
2024-02-26T19:48:46.438Z,8.80
2024-02-26T19:51:18.208Z,8.50
2024-02-26T19:53:49.498Z,8.40
2024-02-26T19:56:20.482Z,8.70
2024-02-26T19:58:47.547Z,8.90
2024-02-26T20:01:15.453Z,8.90
2024-02-26T20:03:49.430Z,8.90
2024-02-26T20:06:17.294Z,8.60
2024-02-26T20:08:44.309Z,8.70
2024-02-26T20:11:16.005Z,8.80
2024-02-26T20:13:43.300Z,8.50
2024-02-26T20:16:10.431Z,8.60
2024-02-26T20:18:37.586Z,8.50
2024-02-26T20:21:05.071Z,8.40
2024-02-26T20:23:32.177Z,8.40
2024-02-26T20:25:59.799Z,8.40
2024-02-26T20:28:26.811Z,8.40
2024-02-26T20:30:53.789Z,8.40
2024-02-26T20:33:20.794Z,8.50
2024-02-26T20:35:47.936Z,8.30
2024-02-26T20:38:15.288Z,8.50
2024-02-26T20:40:42.328Z,8.30
2024-02-26T20:43:09.194Z,8.40
2024-02-26T20:45:36.713Z,8.50
2024-02-26T20:48:04.091Z,8.60
2024-02-26T20:50:31.123Z,8.70
2024-02-26T20:52:59.390Z,8.60
2024-02-26T20:55:26.614Z,8.50
2024-02-26T20:57:53.921Z,8.50
2024-02-26T21:00:21.186Z,8.50
2024-02-26T21:02:48.300Z,8.50
2024-02-26T21:05:16.120Z,8.30
2024-02-26T21:07:43.172Z,8.50
2024-02-26T21:10:10.395Z,8.50
2024-02-26T21:12:37.406Z,8.50
2024-02-26T21:15:05.706Z,8.60
2024-02-26T21:17:33.226Z,8.50
2024-02-26T21:20:00.542Z,8.40
2024-02-26T21:22:27.674Z,8.50
2024-02-26T21:24:54.697Z,8.30
2024-02-26T21:27:23.935Z,8.50
2024-02-26T21:29:51.266Z,8.50
2024-02-26T21:32:18.432Z,8.30
2024-02-26T21:34:45.525Z,8.30
2024-02-26T21:37:12.883Z,8.40
2024-02-26T21:39:39.936Z,8.60
2024-02-26T21:42:07.181Z,8.50
2024-02-26T21:44:34.646Z,8.70
2024-02-26T21:47:03.777Z,8.50
2024-02-26T21:49:32.120Z,8.30
2024-02-26T21:51:59.609Z,8.00
2024-02-26T21:54:29.347Z,7.80
2024-02-26T21:56:56.985Z,8.20
2024-02-26T21:59:24.043Z,8.20
2024-02-26T22:01:51.267Z,8.30
2024-02-26T22:04:18.618Z,8.00
2024-02-26T22:06:46.289Z,7.80
2024-02-26T22:09:13.422Z,7.90
2024-02-26T22:11:40.441Z,8.10
2024-02-26T22:14:08.014Z,7.80
2024-02-26T22:16:34.945Z,7.90
2024-02-26T22:19:02.816Z,8.00
2024-02-26T22:21:32.057Z,8.00
2024-02-26T22:23:59.302Z,8.20
2024-02-26T22:26:26.895Z,8.10
2024-02-26T22:28:53.785Z,8.00
2024-02-26T22:31:26.685Z,8.20
2024-02-26T22:33:54.047Z,8.20
2024-02-26T22:36:21.781Z,8.20
2024-02-26T22:38:48.888Z,8.00
2024-02-26T22:41:16.735Z,8.00
2024-02-26T22:43:43.621Z,8.00
2024-02-26T22:46:11.717Z,8.00
2024-02-26T22:48:38.697Z,8.20
2024-02-26T22:51:06.095Z,8.10
2024-02-26T22:53:34.239Z,7.90
2024-02-26T22:56:01.593Z,7.90
2024-02-26T22:58:28.587Z,8.10
2024-02-26T23:00:55.762Z,7.90
2024-02-26T23:03:22.790Z,8.00
2024-02-26T23:05:49.714Z,7.70
2024-02-26T23:08:18.606Z,7.80
2024-02-26T23:10:46.082Z,7.70
2024-02-26T23:13:12.987Z,7.70
2024-02-26T23:15:39.974Z,7.70
2024-02-26T23:18:07.053Z,7.70
2024-02-26T23:20:34.807Z,7.90
2024-02-26T23:23:04.704Z,7.80
2024-02-26T23:25:31.943Z,7.90
2024-02-26T23:27:59.032Z,8.00
2024-02-26T23:30:26.158Z,7.90
2024-02-26T23:32:53.412Z,7.60
2024-02-26T23:35:20.614Z,7.60
2024-02-26T23:37:47.634Z,7.60
2024-02-26T23:40:14.652Z,7.80
2024-02-26T23:42:41.557Z,8.00
2024-02-26T23:45:09.500Z,8.00
2024-02-26T23:47:36.548Z,8.00
2024-02-26T23:50:04.597Z,8.00
2024-02-26T23:52:31.702Z,7.90
2024-02-26T23:54:58.603Z,7.90
2024-02-26T23:57:25.528Z,8.00
2024-02-26T23:59:52.419Z,8.10
